sensor_id;sensor_type;location;lat;lon;timestamp;pressure;altitude;pressure_sealevel;temperature;humidity
13029;BME280;6581;42.662;23.402;2023-04-25T00:01:42;94610.50;;;10.99;100.00
13029;BME280;6581;42.662;23.402;2023-04-25T00:04:09;94607.84;;;11.02;100.00
13029;BME280;6581;42.662;23.402;2023-04-25T00:06:37;94595.38;;;11.03;100.00
13029;BME280;6581;42.662;23.402;2023-04-25T00:09:05;94588.16;;;11.14;100.00
13029;BME280;6581;42.662;23.402;2023-04-25T00:11:35;94596.50;;;11.20;100.00
13029;BME280;6581;42.662;23.402;2023-04-25T00:14:03;94573.78;;;11.15;100.00
13029;BME280;6581;42.662;23.402;2023-04-25T00:16:30;94575.69;;;11.18;100.00
13029;BME280;6581;42.662;23.402;2023-04-25T00:19:02;94572.28;;;11.18;100.00
13029;BME280;6581;42.662;23.402;2023-04-25T00:21:30;94566.22;;;11.14;100.00
13029;BME280;6581;42.662;23.402;2023-04-25T00:23:58;94567.00;;;11.18;100.00
13029;BME280;6581;42.662;23.402;2023-04-25T00:26:27;94557.91;;;11.26;100.00
13029;BME280;6581;42.662;23.402;2023-04-25T00:28:54;94550.31;;;11.31;100.00
13029;BME280;6581;42.662;23.402;2023-04-25T00:31:21;94535.94;;;11.22;100.00
13029;BME280;6581;42.662;23.402;2023-04-25T00:33:48;94544.66;;;11.22;100.00
13029;BME280;6581;42.662;23.402;2023-04-25T00:36:18;94548.03;;;11.30;100.00
13029;BME280;6581;42.662;23.402;2023-04-25T00:38:45;94540.47;;;11.28;100.00
13029;BME280;6581;42.662;23.402;2023-04-25T00:41:13;94538.19;;;11.30;100.00
13029;BME280;6581;42.662;23.402;2023-04-25T00:43:41;94540.47;;;11.28;100.00
13029;BME280;6581;42.662;23.402;2023-04-25T00:46:08;94532.16;;;11.23;100.00
13029;BME280;6581;42.662;23.402;2023-04-25T00:48:35;94533.28;;;11.25;100.00
13029;BME280;6581;42.662;23.402;2023-04-25T00:51:03;94528.75;;;11.22;100.00
13029;BME280;6581;42.662;23.402;2023-04-25T00:53:32;94518.88;;;11.19;100.00
13029;BME280;6581;42.662;23.402;2023-04-25T00:55:59;94521.91;;;11.21;100.00
13029;BME280;6581;42.662;23.402;2023-04-25T00:58:26;94512.81;;;11.11;100.00
13029;BME280;6581;42.662;23.402;2023-04-25T01:00:55;94517.38;;;11.11;100.00
13029;BME280;6581;42.662;23.402;2023-04-25T01:03:24;94519.66;;;11.13;100.00
13029;BME280;6581;42.662;23.402;2023-04-25T01:05:51;94513.59;;;11.12;100.00
13029;BME280;6581;42.662;23.402;2023-04-25T01:08:20;94516.97;;;11.09;100.00
13029;BME280;6581;42.662;23.402;2023-04-25T01:10:49;94519.25;;;11.10;100.00
13029;BME280;6581;42.662;23.402;2023-04-25T01:13:16;94507.53;;;11.22;100.00
13029;BME280;6581;42.662;23.402;2023-04-25T01:15:44;94504.88;;;11.15;100.00
13029;BME280;6581;42.662;23.402;2023-04-25T01:18:11;94496.16;;;11.07;100.00
13029;BME280;6581;42.662;23.402;2023-04-25T01:20:40;94500.72;;;11.03;100.00
13029;BME280;6581;42.662;23.402;2023-04-25T01:23:10;94498.06;;;11.07;100.00
13029;BME280;6581;42.662;23.402;2023-04-25T01:25:37;94504.13;;;11.11;100.00
13029;BME280;6581;42.662;23.402;2023-04-25T01:28:05;94499.22;;;11.13;100.00
13029;BME280;6581;42.662;23.402;2023-04-25T01:30:33;94496.91;;;11.15;100.00
13029;BME280;6581;42.662;23.402;2023-04-25T01:33:01;94487.44;;;11.00;100.00
13029;BME280;6581;42.662;23.402;2023-04-25T01:35:30;94482.16;;;11.00;100.00
13029;BME280;6581;42.662;23.402;2023-04-25T01:37:57;94488.97;;;10.87;100.00
13029;BME280;6581;42.662;23.402;2023-04-25T01:40:27;94489.34;;;10.89;100.00
13029;BME280;6581;42.662;23.402;2023-04-25T01:42:56;94496.94;;;10.94;100.00
13029;BME280;6581;42.662;23.402;2023-04-25T01:45:23;94495.78;;;10.88;100.00
13029;BME280;6581;42.662;23.402;2023-04-25T01:47:51;94500.31;;;10.87;100.00
13029;BME280;6581;42.662;23.402;2023-04-25T01:50:18;94496.53;;;10.88;100.00
13029;BME280;6581;42.662;23.402;2023-04-25T01:52:47;94494.66;;;10.85;100.00
13029;BME280;6581;42.662;23.402;2023-04-25T01:55:14;94501.09;;;10.81;100.00
13029;BME280;6581;42.662;23.402;2023-04-25T01:57:54;94511.66;;;10.77;100.00
13029;BME280;6581;42.662;23.402;2023-04-25T02:00:30;94506.34;;;10.74;100.00
13029;BME280;6581;42.662;23.402;2023-04-25T02:02:58;94502.94;;;10.73;100.00
13029;BME280;6581;42.662;23.402;2023-04-25T02:05:34;94488.56;;;10.71;100.00
13029;BME280;6581;42.662;23.402;2023-04-25T02:08:02;94496.16;;;10.76;100.00
13029;BME280;6581;42.662;23.402;2023-04-25T02:10:29;94497.66;;;10.80;100.00
13029;BME280;6581;42.662;23.402;2023-04-25T02:13:19;94492.00;;;10.85;100.00
13029;BME280;6581;42.662;23.402;2023-04-25T02:16:21;94497.31;;;10.85;100.00
13029;BME280;6581;42.662;23.402;2023-04-25T02:18:49;94494.25;;;10.87;100.00
13029;BME280;6581;42.662;23.402;2023-04-25T02:21:18;94483.69;;;10.90;100.00
13029;BME280;6581;42.662;23.402;2023-04-25T02:23:45;94472.31;;;10.90;100.00
13029;BME280;6581;42.662;23.402;2023-04-25T02:26:14;94470.78;;;10.82;100.00
13029;BME280;6581;42.662;23.402;2023-04-25T02:28:43;94469.66;;;10.83;100.00
13029;BME280;6581;42.662;23.402;2023-04-25T02:31:09;94468.16;;;10.89;100.00
13029;BME280;6581;42.662;23.402;2023-04-25T02:33:37;94466.63;;;10.84;100.00
13029;BME280;6581;42.662;23.402;2023-04-25T02:36:05;94457.94;;;10.84;100.00
13029;BME280;6581;42.662;23.402;2023-04-25T02:38:33;94453.00;;;10.72;100.00
13029;BME280;6581;42.662;23.402;2023-04-25T02:41:00;94461.31;;;10.74;100.00
13029;BME280;6581;42.662;23.402;2023-04-25T02:43:27;94467.00;;;10.61;100.00
13029;BME280;6581;42.662;23.402;2023-04-25T02:45:56;94457.91;;;10.55;100.00
13029;BME280;6581;42.662;23.402;2023-04-25T02:48:23;94460.19;;;10.60;100.00
13029;BME280;6581;42.662;23.402;2023-04-25T02:50:50;94453.75;;;10.61;100.00
13029;BME280;6581;42.662;23.402;2023-04-25T02:53:42;94457.91;;;10.59;100.00
13029;BME280;6581;42.662;23.402;2023-04-25T02:56:38;94451.09;;;10.58;100.00
13029;BME280;6581;42.662;23.402;2023-04-25T02:59:11;94449.97;;;10.55;100.00
13029;BME280;6581;42.662;23.402;2023-04-25T03:01:39;94451.84;;;10.51;100.00
13029;BME280;6581;42.662;23.402;2023-04-25T03:04:06;94448.44;;;10.51;100.00
13029;BME280;6581;42.662;23.402;2023-04-25T03:06:33;94444.28;;;10.39;100.00
13029;BME280;6581;42.662;23.402;2023-04-25T03:09:01;94445.41;;;10.38;100.00
13029;BME280;6581;42.662;23.402;2023-04-25T03:11:28;94445.41;;;10.35;100.00
13029;BME280;6581;42.662;23.402;2023-04-25T03:13:55;94448.44;;;10.40;100.00
13029;BME280;6581;42.662;23.402;2023-04-25T03:16:22;94448.03;;;10.42;100.00
13029;BME280;6581;42.662;23.402;2023-04-25T03:18:50;94443.91;;;10.48;100.00
13029;BME280;6581;42.662;23.402;2023-04-25T03:21:18;94439.38;;;10.45;100.00
13029;BME280;6581;42.662;23.402;2023-04-25T03:23:45;94445.78;;;10.47;100.00
13029;BME280;6581;42.662;23.402;2023-04-25T03:26:12;94451.44;;;10.42;100.00
13029;BME280;6581;42.662;23.402;2023-04-25T03:28:39;94455.63;;;10.40;100.00
13029;BME280;6581;42.662;23.402;2023-04-25T03:31:06;94449.56;;;10.46;100.00
13029;BME280;6581;42.662;23.402;2023-04-25T03:33:33;94441.22;;;10.37;100.00
13029;BME280;6581;42.662;23.402;2023-04-25T03:36:02;94439.72;;;10.29;100.00
13029;BME280;6581;42.662;23.402;2023-04-25T03:38:30;94442.72;;;10.31;100.00
13029;BME280;6581;42.662;23.402;2023-04-25T03:40:57;94438.94;;;10.32;100.00
13029;BME280;6581;42.662;23.402;2023-04-25T03:43:39;94435.19;;;10.30;100.00
13029;BME280;6581;42.662;23.402;2023-04-25T03:46:10;94445.75;;;10.33;100.00
13029;BME280;6581;42.662;23.402;2023-04-25T03:48:38;94449.94;;;10.38;100.00
13029;BME280;6581;42.662;23.402;2023-04-25T03:51:09;94443.13;;;10.54;100.00
13029;BME280;6581;42.662;23.402;2023-04-25T03:53:40;94455.63;;;10.50;100.00
13029;BME280;6581;42.662;23.402;2023-04-25T03:56:26;94446.56;;;10.62;100.00
13029;BME280;6581;42.662;23.402;2023-04-25T03:59:00;94439.00;;;10.60;100.00
13029;BME280;6581;42.662;23.402;2023-04-25T04:01:29;94448.47;;;10.83;100.00
13029;BME280;6581;42.662;23.402;2023-04-25T04:03:57;94442.03;;;10.98;100.00
13029;BME280;6581;42.662;23.402;2023-04-25T04:06:26;94436.75;;;11.08;100.00
13029;BME280;6581;42.662;23.402;2023-04-25T04:09:04;94434.44;;;11.07;100.00
13029;BME280;6581;42.662;23.402;2023-04-25T04:11:36;94447.72;;;11.07;100.00
13029;BME280;6581;42.662;23.402;2023-04-25T04:14:04;94455.28;;;11.23;100.00
13029;BME280;6581;42.662;23.402;2023-04-25T04:16:31;94460.16;;;11.45;100.00
13029;BME280;6581;42.662;23.402;2023-04-25T04:19:24;94452.22;;;11.38;100.00
13029;BME280;6581;42.662;23.402;2023-04-25T04:22:24;94448.44;;;11.25;100.00
13029;BME280;6581;42.662;23.402;2023-04-25T04:24:55;94462.03;;;11.41;100.00
13029;BME280;6581;42.662;23.402;2023-04-25T04:27:43;94462.44;;;11.36;100.00
13029;BME280;6581;42.662;23.402;2023-04-25T04:30:24;94459.03;;;11.39;100.00
13029;BME280;6581;42.662;23.402;2023-04-25T04:32:59;94456.00;;;11.30;100.00
13029;BME280;6581;42.662;23.402;2023-04-25T04:35:27;94466.25;;;11.32;100.00
13029;BME280;6581;42.662;23.402;2023-04-25T04:37:55;94456.38;;;11.43;100.00
13029;BME280;6581;42.662;23.402;2023-04-25T04:40:27;94459.78;;;11.40;100.00
13029;BME280;6581;42.662;23.402;2023-04-25T04:43:08;94454.84;;;11.42;100.00
13029;BME280;6581;42.662;23.402;2023-04-25T04:46:08;94446.88;;;11.42;100.00
13029;BME280;6581;42.662;23.402;2023-04-25T04:48:56;94445.00;;;11.42;100.00
13029;BME280;6581;42.662;23.402;2023-04-25T04:51:47;94450.69;;;11.44;100.00
13029;BME280;6581;42.662;23.402;2023-04-25T04:54:35;94447.28;;;11.40;100.00
13029;BME280;6581;42.662;23.402;2023-04-25T04:57:27;94460.16;;;11.42;100.00
13029;BME280;6581;42.662;23.402;2023-04-25T05:00:01;94466.22;;;11.42;100.00
13029;BME280;6581;42.662;23.402;2023-04-25T05:02:40;94467.75;;;11.40;100.00
13029;BME280;6581;42.662;23.402;2023-04-25T05:05:27;94480.63;;;11.45;100.00
13029;BME280;6581;42.662;23.402;2023-04-25T05:08:11;94470.34;;;11.50;100.00
13029;BME280;6581;42.662;23.402;2023-04-25T05:10:44;94473.75;;;11.62;100.00
13029;BME280;6581;42.662;23.402;2023-04-25T05:13:46;94474.47;;;11.69;100.00
13029;BME280;6581;42.662;23.402;2023-04-25T05:16:42;94472.63;;;11.55;100.00
13029;BME280;6581;42.662;23.402;2023-04-25T05:19:28;94487.41;;;11.64;100.00
13029;BME280;6581;42.662;23.402;2023-04-25T05:22:14;94488.91;;;11.57;100.00
13029;BME280;6581;42.662;23.402;2023-04-25T05:25:00;94487.75;;;11.66;100.00
13029;BME280;6581;42.662;23.402;2023-04-25T05:27:59;94487.38;;;11.74;100.00
13029;BME280;6581;42.662;23.402;2023-04-25T05:30:48;94494.19;;;11.82;100.00
13029;BME280;6581;42.662;23.402;2023-04-25T05:33:27;94481.34;;;11.77;100.00
13029;BME280;6581;42.662;23.402;2023-04-25T05:35:55;94470.31;;;11.86;100.00
13029;BME280;6581;42.662;23.402;2023-04-25T05:38:23;94478.28;;;11.79;100.00
13029;BME280;6581;42.662;23.402;2023-04-25T05:41:08;94480.88;;;11.93;100.00
13029;BME280;6581;42.662;23.402;2023-04-25T05:43:43;94491.19;;;11.77;100.00
13029;BME280;6581;42.662;23.402;2023-04-25T05:46:25;94488.50;;;11.91;100.00
13029;BME280;6581;42.662;23.402;2023-04-25T05:49:31;94487.28;;;12.06;100.00
13029;BME280;6581;42.662;23.402;2023-04-25T05:51:58;94489.53;;;12.15;100.00
13029;BME280;6581;42.662;23.402;2023-04-25T05:54:43;94490.56;;;12.35;100.00
13029;BME280;6581;42.662;23.402;2023-04-25T05:57:19;94496.19;;;12.48;100.00
13029;BME280;6581;42.662;23.402;2023-04-25T05:59:49;94494.69;;;12.50;100.00
13029;BME280;6581;42.662;23.402;2023-04-25T06:02:42;94493.53;;;12.48;100.00
13029;BME280;6581;42.662;23.402;2023-04-25T06:05:12;94491.13;;;12.71;100.00
13029;BME280;6581;42.662;23.402;2023-04-25T06:07:39;94489.56;;;12.77;100.00
13029;BME280;6581;42.662;23.402;2023-04-25T06:10:08;94487.66;;;12.81;100.00
13029;BME280;6581;42.662;23.402;2023-04-25T06:12:35;94492.13;;;12.95;100.00
13029;BME280;6581;42.662;23.402;2023-04-25T06:15:05;94496.22;;;13.03;100.00
13029;BME280;6581;42.662;23.402;2023-04-25T06:17:33;94493.53;;;13.13;100.00
13029;BME280;6581;42.662;23.402;2023-04-25T06:20:01;94496.03;;;13.31;100.00
13029;BME280;6581;42.662;23.402;2023-04-25T06:22:29;94485.22;;;13.49;100.00
13029;BME280;6581;42.662;23.402;2023-04-25T06:24:56;94487.03;;;13.59;100.00
13029;BME280;6581;42.662;23.402;2023-04-25T06:27:25;94490.59;;;13.45;100.00
13029;BME280;6581;42.662;23.402;2023-04-25T06:29:51;94503.00;;;13.59;100.00
13029;BME280;6581;42.662;23.402;2023-04-25T06:32:20;94498.81;;;13.58;100.00
13029;BME280;6581;42.662;23.402;2023-04-25T06:34:47;94498.34;;;13.70;100.00
13029;BME280;6581;42.662;23.402;2023-04-25T06:37:15;94504.09;;;13.65;100.00
13029;BME280;6581;42.662;23.402;2023-04-25T06:39:42;94498.78;;;13.65;100.00
13029;BME280;6581;42.662;23.402;2023-04-25T06:42:10;94498.72;;;13.68;100.00
13029;BME280;6581;42.662;23.402;2023-04-25T06:44:44;94502.78;;;13.80;100.00
13029;BME280;6581;42.662;23.402;2023-04-25T06:47:12;94506.44;;;13.93;100.00
13029;BME280;6581;42.662;23.402;2023-04-25T06:49:43;94506.66;;;14.09;100.00
13029;BME280;6581;42.662;23.402;2023-04-25T06:52:10;94505.91;;;14.09;99.59
13029;BME280;6581;42.662;23.402;2023-04-25T06:54:38;94511.94;;;14.13;99.29
13029;BME280;6581;42.662;23.402;2023-04-25T06:57:23;94512.47;;;14.01;98.89
13029;BME280;6581;42.662;23.402;2023-04-25T06:59:52;94507.75;;;14.12;97.82
13029;BME280;6581;42.662;23.402;2023-04-25T07:02:19;94508.53;;;14.12;97.74
13029;BME280;6581;42.662;23.402;2023-04-25T07:04:50;94503.34;;;14.32;97.83
13029;BME280;6581;42.662;23.402;2023-04-25T07:07:17;94507.56;;;14.30;98.82
13029;BME280;6581;42.662;23.402;2023-04-25T07:09:51;94501.44;;;14.33;98.32
13029;BME280;6581;42.662;23.402;2023-04-25T07:12:18;94507.03;;;14.11;98.76
13029;BME280;6581;42.662;23.402;2023-04-25T07:14:45;94499.59;;;14.30;100.00
13029;BME280;6581;42.662;23.402;2023-04-25T07:17:12;94508.16;;;14.44;100.00
13029;BME280;6581;42.662;23.402;2023-04-25T07:19:41;94499.72;;;14.49;97.38
13029;BME280;6581;42.662;23.402;2023-04-25T07:22:10;94501.38;;;14.40;99.02
13029;BME280;6581;42.662;23.402;2023-04-25T07:24:40;94503.59;;;14.45;98.86
13029;BME280;6581;42.662;23.402;2023-04-25T07:27:09;94504.41;;;14.42;99.30
13029;BME280;6581;42.662;23.402;2023-04-25T07:29:49;94499.03;;;14.45;99.80
13029;BME280;6581;42.662;23.402;2023-04-25T07:32:16;94502.44;;;14.46;100.00
13029;BME280;6581;42.662;23.402;2023-04-25T07:34:43;94497.50;;;14.75;100.00
13029;BME280;6581;42.662;23.402;2023-04-25T07:37:11;94503.66;;;14.95;97.57
13029;BME280;6581;42.662;23.402;2023-04-25T07:39:53;94499.75;;;15.26;97.36
13029;BME280;6581;42.662;23.402;2023-04-25T07:42:20;94502.19;;;15.40;96.44
13029;BME280;6581;42.662;23.402;2023-04-25T07:44:48;94502.28;;;15.60;96.04
13029;BME280;6581;42.662;23.402;2023-04-25T07:47:15;94504.34;;;15.72;94.90
13029;BME280;6581;42.662;23.402;2023-04-25T07:49:45;94490.34;;;15.88;91.32
13029;BME280;6581;42.662;23.402;2023-04-25T07:52:13;94492.22;;;15.68;92.26
13029;BME280;6581;42.662;23.402;2023-04-25T07:54:47;94486.41;;;15.73;89.89
13029;BME280;6581;42.662;23.402;2023-04-25T07:57:19;94488.97;;;16.00;89.04
13029;BME280;6581;42.662;23.402;2023-04-25T07:59:48;94489.25;;;16.25;87.72
13029;BME280;6581;42.662;23.402;2023-04-25T08:02:42;94492.13;;;16.34;86.12
13029;BME280;6581;42.662;23.402;2023-04-25T08:05:16;94481.88;;;16.13;88.68
13029;BME280;6581;42.662;23.402;2023-04-25T08:07:48;94486.78;;;16.34;87.81
13029;BME280;6581;42.662;23.402;2023-04-25T08:10:16;94484.09;;;16.54;88.32
13029;BME280;6581;42.662;23.402;2023-04-25T08:12:57;94485.06;;;16.63;83.87
13029;BME280;6581;42.662;23.402;2023-04-25T08:15:26;94484.41;;;16.75;82.21
13029;BME280;6581;42.662;23.402;2023-04-25T08:17:53;94492.53;;;17.20;82.74
13029;BME280;6581;42.662;23.402;2023-04-25T08:20:21;94490.38;;;17.15;81.76
13029;BME280;6581;42.662;23.402;2023-04-25T08:22:51;94497.41;;;17.09;81.02
13029;BME280;6581;42.662;23.402;2023-04-25T08:25:54;94484.16;;;16.86;82.74
13029;BME280;6581;42.662;23.402;2023-04-25T08:28:25;94481.09;;;17.04;82.99
13029;BME280;6581;42.662;23.402;2023-04-25T08:30:53;94478.84;;;17.18;79.88
13029;BME280;6581;42.662;23.402;2023-04-25T08:33:24;94469.19;;;17.37;80.79
13029;BME280;6581;42.662;23.402;2023-04-25T08:36:30;94473.75;;;17.69;78.22
13029;BME280;6581;42.662;23.402;2023-04-25T08:38:59;94469.34;;;17.62;77.26
13029;BME280;6581;42.662;23.402;2023-04-25T08:41:27;94462.81;;;17.92;76.98
13029;BME280;6581;42.662;23.402;2023-04-25T08:43:56;94459.25;;;18.11;77.71
13029;BME280;6581;42.662;23.402;2023-04-25T08:46:26;94465.25;;;17.58;82.06
13029;BME280;6581;42.662;23.402;2023-04-25T08:49:07;94468.44;;;16.88;88.56
13029;BME280;6581;42.662;23.402;2023-04-25T08:51:44;94473.72;;;16.56;93.24
13029;BME280;6581;42.662;23.402;2023-04-25T08:54:16;94477.97;;;16.53;91.14
13029;BME280;6581;42.662;23.402;2023-04-25T08:56:44;94470.63;;;16.21;94.68
13029;BME280;6581;42.662;23.402;2023-04-25T08:59:13;94470.75;;;15.75;100.00
13029;BME280;6581;42.662;23.402;2023-04-25T09:01:42;94468.06;;;15.75;100.00
13029;BME280;6581;42.662;23.402;2023-04-25T09:04:09;94478.47;;;15.46;100.00
13029;BME280;6581;42.662;23.402;2023-04-25T09:06:36;94467.63;;;15.10;100.00
13029;BME280;6581;42.662;23.402;2023-04-25T09:09:05;94459.97;;;14.89;100.00
13029;BME280;6581;42.662;23.402;2023-04-25T09:11:35;94451.69;;;14.56;100.00
13029;BME280;6581;42.662;23.402;2023-04-25T09:14:12;94437.78;;;14.69;100.00
13029;BME280;6581;42.662;23.402;2023-04-25T09:17:02;94450.34;;;14.95;99.90
13029;BME280;6581;42.662;23.402;2023-04-25T09:19:51;94450.19;;;15.29;97.56
13029;BME280;6581;42.662;23.402;2023-04-25T09:22:27;94447.13;;;15.73;100.00
13029;BME280;6581;42.662;23.402;2023-04-25T09:24:56;94441.38;;;15.75;96.88
13029;BME280;6581;42.662;23.402;2023-04-25T09:27:30;94432.88;;;15.80;98.08
13029;BME280;6581;42.662;23.402;2023-04-25T09:30:28;94438.09;;;16.07;97.07
13029;BME280;6581;42.662;23.402;2023-04-25T09:33:10;94440.00;;;16.06;92.90
13029;BME280;6581;42.662;23.402;2023-04-25T09:35:43;94439.03;;;15.96;95.93
13029;BME280;6581;42.662;23.402;2023-04-25T09:38:22;94438.91;;;15.64;94.09
13029;BME280;6581;42.662;23.402;2023-04-25T09:40:57;94435.06;;;15.65;96.02
13029;BME280;6581;42.662;23.402;2023-04-25T09:43:46;94443.00;;;15.69;94.13
13029;BME280;6581;42.662;23.402;2023-04-25T09:46:13;94438.09;;;15.87;93.69
13029;BME280;6581;42.662;23.402;2023-04-25T09:49:20;94427.25;;;16.14;94.46
13029;BME280;6581;42.662;23.402;2023-04-25T09:52:01;94431.13;;;16.29;90.74
13029;BME280;6581;42.662;23.402;2023-04-25T09:54:38;94436.38;;;16.52;88.87
13029;BME280;6581;42.662;23.402;2023-04-25T09:57:14;94426.72;;;16.58;88.24
13029;BME280;6581;42.662;23.402;2023-04-25T09:59:47;94432.91;;;16.71;88.70
13029;BME280;6581;42.662;23.402;2023-04-25T10:02:17;94445.78;;;16.93;84.93
13029;BME280;6581;42.662;23.402;2023-04-25T10:04:48;94442.78;;;17.07;83.58
13029;BME280;6581;42.662;23.402;2023-04-25T10:07:23;94438.69;;;17.18;84.63
13029;BME280;6581;42.662;23.402;2023-04-25T10:09:54;94445.63;;;17.16;85.78
13029;BME280;6581;42.662;23.402;2023-04-25T10:12:23;94447.56;;;16.99;83.50
13029;BME280;6581;42.662;23.402;2023-04-25T10:14:52;94443.44;;;16.42;85.15
13029;BME280;6581;42.662;23.402;2023-04-25T10:17:20;94451.16;;;16.21;85.65
13029;BME280;6581;42.662;23.402;2023-04-25T10:19:47;94429.28;;;15.47;85.58
13029;BME280;6581;42.662;23.402;2023-04-25T10:22:20;94420.97;;;15.41;87.12
13029;BME280;6581;42.662;23.402;2023-04-25T10:24:50;94430.44;;;15.23;90.85
13029;BME280;6581;42.662;23.402;2023-04-25T10:27:43;94431.41;;;13.71;100.00
13029;BME280;6581;42.662;23.402;2023-04-25T10:30:13;94427.09;;;13.03;100.00
13029;BME280;6581;42.662;23.402;2023-04-25T10:32:41;94428.53;;;12.66;100.00
13029;BME280;6581;42.662;23.402;2023-04-25T10:35:13;94428.28;;;12.50;100.00
13029;BME280;6581;42.662;23.402;2023-04-25T10:38:00;94420.09;;;12.75;100.00
13029;BME280;6581;42.662;23.402;2023-04-25T10:40:28;94410.44;;;12.99;100.00
13029;BME280;6581;42.662;23.402;2023-04-25T10:42:55;94409.78;;;13.32;100.00
13029;BME280;6581;42.662;23.402;2023-04-25T10:45:52;94411.63;;;13.35;100.00
13029;BME280;6581;42.662;23.402;2023-04-25T10:48:25;94423.53;;;13.23;100.00
13029;BME280;6581;42.662;23.402;2023-04-25T10:51:07;94442.41;;;13.36;100.00
13029;BME280;6581;42.662;23.402;2023-04-25T10:53:35;94439.06;;;13.28;100.00
13029;BME280;6581;42.662;23.402;2023-04-25T10:56:09;94442.84;;;13.31;100.00
13029;BME280;6581;42.662;23.402;2023-04-25T10:58:42;94430.22;;;13.39;100.00
13029;BME280;6581;42.662;23.402;2023-04-25T11:01:12;94426.13;;;13.68;100.00
13029;BME280;6581;42.662;23.402;2023-04-25T11:03:40;94426.84;;;13.72;100.00
13029;BME280;6581;42.662;23.402;2023-04-25T11:06:17;94428.03;;;13.98;100.00
13029;BME280;6581;42.662;23.402;2023-04-25T11:08:49;94424.22;;;13.99;100.00
13029;BME280;6581;42.662;23.402;2023-04-25T11:11:16;94420.63;;;14.16;100.00
13029;BME280;6581;42.662;23.402;2023-04-25T11:13:47;94423.56;;;14.21;100.00
13029;BME280;6581;42.662;23.402;2023-04-25T11:16:15;94417.38;;;13.98;100.00
13029;BME280;6581;42.662;23.402;2023-04-25T11:18:43;94418.13;;;14.02;100.00
13029;BME280;6581;42.662;23.402;2023-04-25T11:21:10;94423.53;;;13.95;100.00
13029;BME280;6581;42.662;23.402;2023-04-25T11:23:38;94428.34;;;14.07;100.00
13029;BME280;6581;42.662;23.402;2023-04-25T11:26:05;94419.69;;;14.26;100.00
13029;BME280;6581;42.662;23.402;2023-04-25T11:28:33;94414.91;;;14.44;100.00
13029;BME280;6581;42.662;23.402;2023-04-25T11:31:00;94421.56;;;14.59;100.00
13029;BME280;6581;42.662;23.402;2023-04-25T11:33:28;94421.25;;;14.54;100.00
13029;BME280;6581;42.662;23.402;2023-04-25T11:35:55;94413.50;;;14.63;100.00
13029;BME280;6581;42.662;23.402;2023-04-25T11:38:24;94410.06;;;14.62;100.00
13029;BME280;6581;42.662;23.402;2023-04-25T11:40:52;94401.69;;;14.64;100.00
13029;BME280;6581;42.662;23.402;2023-04-25T11:43:20;94408.66;;;14.81;100.00
13029;BME280;6581;42.662;23.402;2023-04-25T11:45:48;94404.97;;;14.98;100.00
13029;BME280;6581;42.662;23.402;2023-04-25T11:48:16;94402.34;;;14.95;100.00
13029;BME280;6581;42.662;23.402;2023-04-25T11:50:44;94413.19;;;14.84;100.00
13029;BME280;6581;42.662;23.402;2023-04-25T11:53:12;94417.31;;;14.89;100.00
13029;BME280;6581;42.662;23.402;2023-04-25T11:55:39;94425.41;;;14.82;100.00
13029;BME280;6581;42.662;23.402;2023-04-25T11:58:06;94432.31;;;14.79;96.72
13029;BME280;6581;42.662;23.402;2023-04-25T12:00:35;94413.34;;;14.97;100.00
13029;BME280;6581;42.662;23.402;2023-04-25T12:03:03;94411.00;;;14.52;100.00
13029;BME280;6581;42.662;23.402;2023-04-25T12:05:31;94417.38;;;13.98;100.00
13029;BME280;6581;42.662;23.402;2023-04-25T12:08:10;94425.66;;;13.39;96.84
13029;BME280;6581;42.662;23.402;2023-04-25T12:10:40;94407.47;;;12.89;98.90
13029;BME280;6581;42.662;23.402;2023-04-25T12:13:19;94387.66;;;12.98;100.00
13029;BME280;6581;42.662;23.402;2023-04-25T12:15:46;94394.91;;;13.35;100.00
13029;BME280;6581;42.662;23.402;2023-04-25T12:18:14;94399.47;;;13.71;100.00
13029;BME280;6581;42.662;23.402;2023-04-25T12:20:41;94399.34;;;14.12;100.00
13029;BME280;6581;42.662;23.402;2023-04-25T12:23:10;94393.59;;;14.44;100.00
13029;BME280;6581;42.662;23.402;2023-04-25T12:25:39;94391.94;;;14.77;100.00
13029;BME280;6581;42.662;23.402;2023-04-25T12:28:11;94387.16;;;15.15;96.71
13029;BME280;6581;42.662;23.402;2023-04-25T12:30:56;94383.75;;;15.34;92.12
13029;BME280;6581;42.662;23.402;2023-04-25T12:33:26;94383.00;;;15.34;90.69
13029;BME280;6581;42.662;23.402;2023-04-25T12:35:53;94385.66;;;15.57;91.27
13029;BME280;6581;42.662;23.402;2023-04-25T12:38:24;94394.28;;;15.65;87.94
13029;BME280;6581;42.662;23.402;2023-04-25T12:40:52;94395.84;;;15.82;90.08
13029;BME280;6581;42.662;23.402;2023-04-25T12:43:20;94411.84;;;16.02;87.73
13029;BME280;6581;42.662;23.402;2023-04-25T12:45:48;94438.22;;;15.80;85.01
13029;BME280;6581;42.662;23.402;2023-04-25T12:48:16;94457.66;;;15.37;89.58
13029;BME280;6581;42.662;23.402;2023-04-25T12:50:43;94443.44;;;14.47;100.00
13029;BME280;6581;42.662;23.402;2023-04-25T12:53:13;94435.56;;;14.06;100.00
13029;BME280;6581;42.662;23.402;2023-04-25T12:55:41;94444.38;;;13.66;100.00
13029;BME280;6581;42.662;23.402;2023-04-25T12:58:08;94444.97;;;13.47;100.00
13029;BME280;6581;42.662;23.402;2023-04-25T13:00:35;94450.53;;;13.22;100.00
13029;BME280;6581;42.662;23.402;2023-04-25T13:03:03;94441.88;;;13.11;100.00
13029;BME280;6581;42.662;23.402;2023-04-25T13:05:31;94449.13;;;13.03;100.00
13029;BME280;6581;42.662;23.402;2023-04-25T13:07:58;94446.19;;;12.91;100.00
13029;BME280;6581;42.662;23.402;2023-04-25T13:10:25;94454.56;;;12.89;100.00
13029;BME280;6581;42.662;23.402;2023-04-25T13:12:54;94451.38;;;12.60;100.00
13029;BME280;6581;42.662;23.402;2023-04-25T13:15:21;94451.44;;;12.42;100.00
13029;BME280;6581;42.662;23.402;2023-04-25T13:17:49;94454.88;;;12.39;100.00
13029;BME280;6581;42.662;23.402;2023-04-25T13:20:16;94449.69;;;12.18;100.00